MOUNT RAINIER
GEOLOGY & WEATHER
Hello guest! [ Log In ]
morageology.com Water Data for Paradise at Mount Rainier National Park

Paradise at Mount Rainier National Park

Date Range to view:
 
[ Graphical View | Weather History | Precipitation Intensity ]

View this data in a CSV Format

GMT Date/Time Local Date/Time Air Temperature (°C) Dew Point Temperature (°C) Relative Humidity (%) Wind Direction (°) Wind Speed (mph) Wind Gust Speed (mph) Rainfall (in) Snow Depth (m) Solar Radiation (w/m2) Battery (V)
08/10/2020 06:00:00 2020-08-09 23:00:00 11.3722 6.9614 74.3 0 0.00 0.00 450.98 0.224 0.00 13.6
08/10/2020 05:00:00 2020-08-09 22:00:00 10.9056 7.3128 78.5 0 0.00 0.00 450.98 0.242 0.00 13.6
08/10/2020 04:00:00 2020-08-09 21:00:00 10.7722 7.5150 80.3 0 0.00 0.00 450.98 0.235 0.00 13.6
08/10/2020 03:00:00 2020-08-09 20:00:00 11.0833 6.8772 75.3 0 0.00 0.00 450.98 0.242 0.00 13.6
08/10/2020 02:00:00 2020-08-09 19:00:00 13.3889 7.4049 67.1 0 0.00 0.00 450.98 0.230 0.00 13.6
08/10/2020 01:00:00 2020-08-09 18:00:00 15.2444 7.8557 61.4 0 0.00 0.00 450.98 0.141 0.00 13.6
08/10/2020 00:00:00 2020-08-09 17:00:00 15.6444 8.0568 60.6 0 0.00 0.00 450.98 0.173 0.00 13.6
08/09/2020 23:00:00 2020-08-09 16:00:00 16.0500 8.8098 62.2 0 0.00 0.00 450.98 0.102 0.00 13.6
08/09/2020 22:00:00 2020-08-09 15:00:00 15.5167 7.6774 59.6 0 0.00 0.00 450.98 0.128 0.00 13.6
08/09/2020 21:00:00 2020-08-09 14:00:00 15.2500 8.0064 62.0 0 0.00 0.00 450.98 0.118 0.00 13.6
08/09/2020 20:00:00 2020-08-09 13:00:00 12.9944 6.6767 65.5 0 0.00 0.00 450.98 0.176 0.00 13.6
08/09/2020 19:00:00 2020-08-09 12:00:00 11.9389 6.4624 69.2 0 0.00 0.00 450.98 0.184 0.00 13.6
08/09/2020 18:00:00 2020-08-09 11:00:00 11.2278 6.0180 70.3 0 0.00 0.00 450.98 0.257 0.00 13.6
08/09/2020 17:00:00 2020-08-09 10:00:00 9.9778 4.3025 67.8 0 0.00 0.00 450.98 0.272 0.00 13.6
08/09/2020 16:00:00 2020-08-09 09:00:00 8.3278 3.5145 71.7 0 0.00 0.00 450.98 0.288 0.00 13.6
08/09/2020 15:00:00 2020-08-09 08:00:00 5.8722 2.0019 76.2 0 0.00 0.00 450.98 0.262 0.00 13.6
08/09/2020 14:00:00 2020-08-09 07:00:00 3.8833 3.6106 98.1 0 0.00 0.00 450.98 0.277 0.00 13.6
08/09/2020 13:00:00 2020-08-09 06:00:00 3.8722 3.7436 99.1 0 0.00 0.00 450.98 0.288 0.00 13.6
08/09/2020 12:00:00 2020-08-09 05:00:00 4.4667 3.9287 96.3 0 0.00 0.00 450.98 0.279 0.00 13.6
08/09/2020 11:00:00 2020-08-09 04:00:00 5.1333 4.5924 96.3 0 0.00 0.00 450.98 0.165 0.00 13.6
08/09/2020 10:00:00 2020-08-09 03:00:00 5.4667 5.1611 97.9 0 0.00 0.00 450.98 0.213 0.00 13.6
08/09/2020 09:00:00 2020-08-09 02:00:00 5.7333 5.6028 99.1 0 0.00 0.00 450.98 0.210 0.00 13.6
08/09/2020 08:00:00 2020-08-09 01:00:00 5.8667 5.8377 99.8 0 0.00 0.00 450.98 0.186 0.00 13.6
08/09/2020 07:00:00 2020-08-09 00:00:00 6.0611 6.0466 99.9 0 0.00 0.00 450.98 0.178 0.00 13.6
08/09/2020 06:00:00 2020-08-08 23:00:00 6.3944 6.3654 99.8 0 0.00 0.00 450.98 0.190 0.00 13.6
08/09/2020 05:00:00 2020-08-08 22:00:00 6.5167 6.3266 98.7 0 0.00 0.00 450.98 0.181 0.00 13.6
08/09/2020 04:00:00 2020-08-08 21:00:00 6.9167 6.3680 96.3 0 0.00 0.00 450.98 0.185 0.00 13.6
08/09/2020 03:00:00 2020-08-08 20:00:00 7.8444 6.8919 93.7 0 0.00 0.00 450.98 0.192 0.00 13.6
08/09/2020 02:00:00 2020-08-08 19:00:00 8.5111 6.9967 90.2 0 0.00 0.00 450.98 0.229 0.00 13.6
08/09/2020 01:00:00 2020-08-08 18:00:00 9.3611 7.1887 86.3 0 0.00 0.00 450.98 0.198 0.00 13.6
08/09/2020 00:00:00 2020-08-08 17:00:00 9.2333 6.9613 85.7 0 0.00 0.00 450.98 0.174 0.00 13.6
08/08/2020 23:00:00 2020-08-08 16:00:00 8.9778 7.2288 88.8 0 0.00 0.00 450.98 0.195 0.00 13.6
08/08/2020 22:00:00 2020-08-08 15:00:00 8.3778 7.9896 97.4 0 0.00 0.00 450.98 0.265 0.00 13.6
08/08/2020 21:00:00 2020-08-08 14:00:00 7.7778 7.7484 99.8 0 0.00 0.00 450.98 0.272 0.00 13.6
08/08/2020 20:00:00 2020-08-08 13:00:00 7.8444 7.8150 99.8 0 0.00 0.00 450.98 0.255 0.00 13.6
08/08/2020 19:00:00 2020-08-08 12:00:00 7.1111 7.0819 99.8 0 0.00 0.00 450.98 0.275 0.00 13.6
08/08/2020 18:00:00 2020-08-08 11:00:00 6.9222 6.8930 99.8 0 0.00 0.00 450.98 0.241 0.00 13.6
08/08/2020 17:00:00 2020-08-08 10:00:00 5.9278 5.8988 99.8 0 0.00 0.00 450.98 0.260 0.00 13.6
08/08/2020 16:00:00 2020-08-08 09:00:00 6.4611 6.4466 99.9 0 0.00 0.00 450.98 0.246 0.00 13.6
08/08/2020 15:00:00 2020-08-08 08:00:00 5.7333 5.7189 99.9 0 0.00 0.00 450.98 0.213 0.00 13.6
08/08/2020 14:00:00 2020-08-08 07:00:00 6.0000 5.9855 99.9 0 0.00 0.00 450.98 0.193 0.00 13.6
08/08/2020 13:00:00 2020-08-08 06:00:00 6.0000 5.9855 99.9 0 0.00 0.00 450.98 0.258 0.00 13.6
08/08/2020 12:00:00 2020-08-08 05:00:00 6.1333 6.1188 99.9 0 0.00 0.00 450.98 0.246 0.00 13.6
08/08/2020 11:00:00 2020-08-08 04:00:00 6.2667 6.2522 99.9 0 0.00 0.00 450.98 0.203 0.00 13.6
08/08/2020 10:00:00 2020-08-08 03:00:00 6.3944 5.9826 97.2 0 0.00 0.00 450.98 0.248 0.00 13.6
08/08/2020 09:00:00 2020-08-08 02:00:00 6.4611 5.6111 94.3 0 0.00 0.00 450.98 0.258 0.00 13.6
08/08/2020 08:00:00 2020-08-08 01:00:00 6.0667 5.7152 97.6 0 0.00 0.00 450.98 0.258 0.00 13.6
08/08/2020 07:00:00 2020-08-08 00:00:00 6.3944 5.8029 96.0 0 0.00 0.00 450.98 0.241 0.00 13.6
08/08/2020 06:00:00 2020-08-07 23:00:00 6.8611 6.0084 94.3 0 0.00 0.00 450.98 0.247 0.00 13.6
08/08/2020 05:00:00 2020-08-07 22:00:00 7.0556 6.0004 93.0 0 0.00 0.00 450.98 0.290 0.00 13.6
08/08/2020 04:00:00 2020-08-07 21:00:00 7.3111 5.9864 91.3 0 0.00 0.00 450.98 0.262 0.00 13.6
08/08/2020 03:00:00 2020-08-07 20:00:00 8.4944 6.1508 85.2 0 0.00 0.00 450.98 0.231 0.00 13.6
08/08/2020 02:00:00 2020-08-07 19:00:00 10.4722 6.4014 75.9 0 0.00 0.00 450.98 0.177 0.00 13.6
08/08/2020 01:00:00 2020-08-07 18:00:00 12.5278 6.2483 65.6 0 0.00 0.00 450.98 0.182 0.00 13.6
08/08/2020 00:00:00 2020-08-07 17:00:00 13.7889 6.9353 63.3 0 0.00 0.00 450.98 0.208 0.00 13.6
08/07/2020 23:00:00 2020-08-07 16:00:00 14.2000 6.4757 59.7 0 0.00 0.00 450.98 0.253 0.00 13.6
08/07/2020 22:00:00 2020-08-07 15:00:00 13.8000 7.1610 64.2 0 0.00 0.00 450.98 0.184 0.00 13.6
08/07/2020 21:00:00 2020-08-07 14:00:00 12.9333 6.3091 64.1 0 0.00 0.00 450.98 0.180 0.00 13.6
08/07/2020 20:00:00 2020-08-07 13:00:00 10.5500 6.3807 75.4 0 0.00 0.00 450.98 0.182 0.00 13.6
08/07/2020 19:00:00 2020-08-07 12:00:00 9.4944 4.9728 73.4 0 0.00 0.00 450.98 0.274 0.00 13.6
08/07/2020 18:00:00 2020-08-07 11:00:00 6.9778 4.5947 84.8 0 0.00 0.00 450.98 0.295 0.00 13.6
08/07/2020 17:00:00 2020-08-07 10:00:00 5.4000 4.2971 92.6 0 0.00 0.00 450.98 0.216 0.00 13.6
08/07/2020 16:00:00 2020-08-07 09:00:00 4.4833 3.9008 96.0 0 0.00 0.00 450.98 0.310 0.00 13.6
08/07/2020 15:00:00 2020-08-07 08:00:00 3.0833 3.0550 99.8 0 0.00 0.00 450.98 0.310 0.00 13.6
08/07/2020 14:00:00 2020-08-07 07:00:00 2.2167 2.1886 99.8 0 0.00 0.00 450.98 0.264 0.00 13.6
08/07/2020 13:00:00 2020-08-07 06:00:00 2.7500 2.7218 99.8 0 0.00 0.00 450.98 0.297 0.00 13.6
08/07/2020 12:00:00 2020-08-07 05:00:00 3.0778 3.0636 99.9 0 0.00 0.00 450.98 0.269 0.00 13.6
08/07/2020 11:00:00 2020-08-07 04:00:00 3.3444 3.3161 99.8 0 0.00 0.00 450.98 0.284 0.00 13.6
08/07/2020 10:00:00 2020-08-07 03:00:00 3.4111 3.3827 99.8 0 0.00 0.00 450.97 0.265 0.00 13.6
08/07/2020 09:00:00 2020-08-07 02:00:00 3.4111 3.3827 99.8 0 0.00 0.00 450.95 0.235 0.00 13.6
08/07/2020 08:00:00 2020-08-07 01:00:00 3.4722 3.4438 99.8 0 0.00 0.00 450.95 0.232 0.00 13.6
08/07/2020 07:00:00 2020-08-07 00:00:00 3.6722 3.4864 98.7 0 0.00 0.00 450.95 0.239 0.00 13.6
08/07/2020 06:00:00 2020-08-06 23:00:00 3.8667 3.3018 96.1 0 0.00 0.00 450.95 0.249 0.00 13.6
08/07/2020 05:00:00 2020-08-06 22:00:00 4.0000 3.1667 94.3 0 0.00 0.00 450.95 0.294 0.00 13.6
08/07/2020 04:00:00 2020-08-06 21:00:00 4.2000 3.1839 93.1 0 0.00 0.00 450.95 0.289 0.00 13.6
08/07/2020 03:00:00 2020-08-06 20:00:00 4.3333 2.8216 89.9 0 0.00 0.00 450.95 0.283 0.00 13.6
08/07/2020 02:00:00 2020-08-06 19:00:00 4.8667 3.1900 88.9 0 0.00 0.00 450.95 0.213 0.00 13.6
08/07/2020 01:00:00 2020-08-06 18:00:00 5.2000 3.8506 91.0 0 0.00 0.00 450.95 0.261 0.00 13.6
08/07/2020 00:00:00 2020-08-06 17:00:00 5.4611 4.3423 92.5 0 0.00 0.00 450.94 0.207 0.00 13.6
08/06/2020 23:00:00 2020-08-06 16:00:00 5.8500 2.9264 81.5 0 0.00 0.00 450.94 0.319 0.00 13.6
08/06/2020 22:00:00 2020-08-06 15:00:00 6.7833 5.2896 90.2 0 0.00 0.00 450.94 0.262 0.00 13.6
08/06/2020 21:00:00 2020-08-06 14:00:00 6.7833 5.7925 93.4 0 0.00 0.00 450.93 0.285 0.00 13.6
08/06/2020 20:00:00 2020-08-06 13:00:00 5.6500 5.6211 99.8 0 0.00 0.00 450.93 0.276 0.00 13.6
08/06/2020 19:00:00 2020-08-06 12:00:00 6.2500 6.2355 99.9 0 0.00 0.00 450.93 0.215 0.00 13.6
08/06/2020 18:00:00 2020-08-06 11:00:00 6.9167 6.8875 99.8 0 0.00 0.00 450.93 0.248 0.00 13.6
08/06/2020 17:00:00 2020-08-06 10:00:00 7.1778 7.1485 99.8 0 0.00 0.00 450.91 0.255 0.00 13.6
08/06/2020 16:00:00 2020-08-06 09:00:00 7.2500 7.2207 99.8 0 0.00 0.00 450.89 0.311 0.00 13.6
08/06/2020 15:00:00 2020-08-06 08:00:00 6.5944 6.5799 99.9 0 0.00 0.00 450.89 0.294 0.00 13.6
08/06/2020 14:00:00 2020-08-06 07:00:00 5.9333 5.8608 99.5 0 0.00 0.00 450.89 0.243 0.00 13.6
08/06/2020 13:00:00 2020-08-06 06:00:00 6.6611 6.5882 99.5 0 0.00 0.00 450.89 0.266 0.00 13.6
08/06/2020 12:00:00 2020-08-06 05:00:00 6.7944 5.8653 93.8 0 0.00 0.00 450.89 0.306 0.00 13.6
08/06/2020 11:00:00 2020-08-06 04:00:00 6.5278 3.4484 80.7 0 0.00 0.00 450.89 0.299 0.00 13.6
08/06/2020 10:00:00 2020-08-06 03:00:00 6.9944 6.8773 99.2 0 0.00 0.00 450.89 0.289 0.00 13.6
08/06/2020 09:00:00 2020-08-06 02:00:00 7.1111 7.0819 99.8 0 0.00 0.00 450.89 0.248 0.00 13.6
08/06/2020 08:00:00 2020-08-06 01:00:00 8.2444 8.2149 99.8 0 0.00 0.00 450.89 0.219 0.00 13.6
08/06/2020 07:00:00 2020-08-06 00:00:00 8.7778 8.7630 99.9 0 0.00 0.00 450.89 0.229 0.00 13.6
08/06/2020 06:00:00 2020-08-05 23:00:00 9.1111 9.0814 99.8 0 0.00 0.00 450.89 0.265 0.00 13.6
08/06/2020 05:00:00 2020-08-05 22:00:00 9.3111 9.0716 98.4 0 0.00 0.00 450.89 0.278 0.00 13.6
08/06/2020 04:00:00 2020-08-05 21:00:00 9.9611 8.9925 93.7 0 0.00 0.00 450.89 0.204 0.00 13.6
08/06/2020 03:00:00 2020-08-05 20:00:00 12.0056 9.6835 85.7 0 0.00 0.00 450.89 0.214 0.00 13.6
08/06/2020 02:00:00 2020-08-05 19:00:00 14.8389 10.4487 75.0 0 0.00 0.00 450.89 0.180 0.00 13.6
08/06/2020 01:00:00 2020-08-05 18:00:00 17.3500 10.6126 64.6 0 0.00 0.00 450.89 0.107 0.00 13.6
08/06/2020 00:00:00 2020-08-05 17:00:00 17.9611 11.5164 66.0 0 0.00 0.00 450.89 0.187 0.00 13.6
08/05/2020 23:00:00 2020-08-05 16:00:00 18.3611 11.6817 65.1 0 0.00 0.00 450.89 0.107 0.00 13.6
08/05/2020 22:00:00 2020-08-05 15:00:00 18.4333 12.2575 67.3 0 0.00 0.00 450.89 0.209 0.00 13.6
08/05/2020 21:00:00 2020-08-05 14:00:00 17.9611 11.4567 65.7 0 0.00 0.00 450.89 0.184 0.00 13.6
08/05/2020 20:00:00 2020-08-05 13:00:00 17.1722 11.7402 70.4 0 0.00 0.00 450.89 0.103 0.00 13.6
08/05/2020 19:00:00 2020-08-05 12:00:00 15.7167 10.3233 70.3 0 0.00 0.00 450.89 0.261 0.00 13.6
08/05/2020 18:00:00 2020-08-05 11:00:00 14.6722 10.4467 75.8 0 0.00 0.00 450.89 0.202 0.00 13.6
08/05/2020 17:00:00 2020-08-05 10:00:00 12.9500 10.7330 86.4 0 0.00 0.00 450.89 0.291 0.00 13.6
08/05/2020 16:00:00 2020-08-05 09:00:00 11.2278 10.4402 94.9 0 0.00 0.00 450.89 0.177 0.00 13.6
08/05/2020 15:00:00 2020-08-05 08:00:00 10.9056 10.6935 98.6 0 0.00 0.00 450.89 0.212 0.00 13.6
08/05/2020 14:00:00 2020-08-05 07:00:00 10.4389 10.4089 99.8 0 0.00 0.00 450.89 0.212 0.00 13.6
08/05/2020 13:00:00 2020-08-05 06:00:00 10.4389 10.4089 99.8 0 0.00 0.00 450.89 0.248 0.00 13.6
08/05/2020 12:00:00 2020-08-05 05:00:00 11.0389 10.5497 96.8 0 0.00 0.00 450.89 0.219 0.00 13.6
08/05/2020 11:00:00 2020-08-05 04:00:00 11.3722 10.7098 95.7 0 0.00 0.00 450.89 0.245 0.00 13.6
08/05/2020 10:00:00 2020-08-05 03:00:00 11.8389 11.3466 96.8 0 0.00 0.00 450.89 0.082 0.00 13.6
08/05/2020 09:00:00 2020-08-05 02:00:00 12.2389 10.7625 90.7 0 0.00 0.00 450.89 0.076 0.00 13.6
08/05/2020 08:00:00 2020-08-05 01:00:00 11.8278 9.4916 85.6 0 0.00 0.00 450.89 0.213 0.00 13.6
08/05/2020 07:00:00 2020-08-05 00:00:00 13.0167 6.0564 62.7 0 0.00 0.00 450.89 0.201 0.00 13.6
08/05/2020 06:00:00 2020-08-04 23:00:00 13.2833 7.9899 70.3 0 0.00 0.00 450.89 0.243 0.00 13.6
08/05/2020 05:00:00 2020-08-04 22:00:00 14.4722 8.1317 65.7 0 0.00 0.00 450.89 0.272 0.00 13.6
08/05/2020 04:00:00 2020-08-04 21:00:00 13.9389 11.0070 82.5 0 0.00 0.00 450.89 0.239 0.00 13.6
08/05/2020 03:00:00 2020-08-04 20:00:00 15.2500 12.1401 81.7 0 0.00 0.00 450.89 0.190 0.00 13.6
08/05/2020 02:00:00 2020-08-04 19:00:00 16.5611 12.3141 76.0 0 0.00 0.00 450.89 0.177 0.00 13.6
08/05/2020 01:00:00 2020-08-04 18:00:00 18.1500 12.3822 69.1 0 0.00 0.00 450.89 0.092 0.00 13.6
08/05/2020 00:00:00 2020-08-04 17:00:00 19.3444 12.0262 62.6 0 0.00 0.00 450.89 0.145 0.00 13.6
08/04/2020 23:00:00 2020-08-04 16:00:00 19.4167 11.5720 60.5 0 0.00 0.00 450.89 0.071 0.00 13.6
08/04/2020 22:00:00 2020-08-04 15:00:00 19.5556 10.5501 56.0 0 0.00 0.00 450.89 0.101 0.00 13.6
08/04/2020 21:00:00 2020-08-04 14:00:00 17.6944 11.1410 65.5 0 0.00 0.00 450.89 0.237 0.00 13.6
08/04/2020 20:00:00 2020-08-04 13:00:00 17.1611 10.0126 62.8 0 0.00 0.00 450.89 0.124 0.00 13.6
08/04/2020 19:00:00 2020-08-04 12:00:00 16.3722 9.3160 63.0 0 0.00 0.00 450.89 0.171 0.00 13.6
08/04/2020 18:00:00 2020-08-04 11:00:00 17.7222 6.3315 47.2 0 0.00 0.00 450.89 0.167 0.00 13.6
08/04/2020 17:00:00 2020-08-04 10:00:00 16.6000 6.2700 50.5 0 0.00 0.00 450.89 0.192 0.00 13.6
08/04/2020 16:00:00 2020-08-04 09:00:00 15.2111 5.9127 53.8 0 0.00 0.00 450.89 0.151 0.00 13.6
08/04/2020 15:00:00 2020-08-04 08:00:00 13.6333 1.9907 45.3 0 0.00 0.00 450.89 0.289 0.00 13.6
08/04/2020 14:00:00 2020-08-04 07:00:00 11.1722 -2.5404 38.3 0 0.00 0.00 450.89 0.395 0.00 13.6
08/04/2020 13:00:00 2020-08-04 06:00:00 9.5278 -4.0546 38.1 0 0.00 0.00 450.89 0.429 0.00 13.6
08/04/2020 12:00:00 2020-08-04 05:00:00 8.3944 1.8529 63.4 0 0.00 0.00 450.89 0.399 0.00 13.6
08/04/2020 11:00:00 2020-08-04 04:00:00 8.3944 3.4194 70.9 0 0.00 0.00 450.89 0.263 0.00 13.6
08/04/2020 10:00:00 2020-08-04 03:00:00 8.5167 6.9048 89.6 0 0.00 0.00 450.89 0.271 0.00 13.6
08/04/2020 09:00:00 2020-08-04 02:00:00 8.2444 7.5060 95.1 0 0.00 0.00 450.89 0.283 0.00 13.6
08/04/2020 08:00:00 2020-08-04 01:00:00 8.9778 7.9379 93.2 0 0.00 0.00 450.89 0.253 0.00 13.6
08/04/2020 07:00:00 2020-08-04 00:00:00 9.3111 8.7979 96.6 0 0.00 0.00 450.89 0.285 0.00 13.6
08/04/2020 06:00:00 2020-08-03 23:00:00 9.3778 8.7102 95.6 0 0.00 0.00 450.89 0.212 0.00 13.6
08/04/2020 05:00:00 2020-08-03 22:00:00 9.7111 8.4737 92.0 0 0.00 0.00 450.89 0.162 0.00 13.6
08/04/2020 04:00:00 2020-08-03 21:00:00 10.4889 8.9342 90.1 0 0.00 0.00 450.89 0.271 0.00 13.6
08/04/2020 03:00:00 2020-08-03 20:00:00 11.9389 9.7221 86.3 0 0.00 0.00 450.89 0.273 0.00 13.6
08/04/2020 02:00:00 2020-08-03 19:00:00 14.2556 10.1223 76.2 0 0.00 0.00 450.89 0.239 0.00 13.6
08/04/2020 01:00:00 2020-08-03 18:00:00 15.4444 9.7423 68.8 0 0.00 0.00 450.89 0.090 0.00 13.6
08/04/2020 00:00:00 2020-08-03 17:00:00 15.7778 9.8423 67.8 0 0.00 0.00 450.89 0.133 0.00 13.6
08/03/2020 23:00:00 2020-08-03 16:00:00 16.0444 10.5947 70.1 0 0.00 0.00 450.89 0.123 0.00 13.6
08/03/2020 22:00:00 2020-08-03 15:00:00 15.7167 10.5351 71.3 0 0.00 0.00 450.89 0.241 0.00 13.6
08/03/2020 21:00:00 2020-08-03 14:00:00 14.7944 9.2538 69.4 0 0.00 0.00 450.89 0.150 0.00 13.6
08/03/2020 20:00:00 2020-08-03 13:00:00 12.8111 9.5017 80.3 0 0.00 0.00 450.89 0.190 0.00 13.6
08/03/2020 19:00:00 2020-08-03 12:00:00 11.8778 8.8843 81.9 0 0.00 0.00 450.89 0.202 0.00 13.6
08/03/2020 18:00:00 2020-08-03 11:00:00 10.7556 8.8309 87.9 0 0.00 0.00 450.89 0.204 0.00 13.6
08/03/2020 17:00:00 2020-08-03 10:00:00 9.9056 8.6662 92.0 0 0.00 0.00 450.89 0.259 0.00 13.6
08/03/2020 16:00:00 2020-08-03 09:00:00 8.8444 8.6358 98.6 0 0.00 0.00 450.89 0.252 0.00 13.6
08/03/2020 15:00:00 2020-08-03 08:00:00 8.4444 8.4149 99.8 0 0.00 0.00 450.89 0.229 0.00 13.6
08/03/2020 14:00:00 2020-08-03 07:00:00 7.7111 7.6817 99.8 0 0.00 0.00 450.89 0.225 0.00 13.6
08/03/2020 13:00:00 2020-08-03 06:00:00 7.8444 7.8150 99.8 0 0.00 0.00 450.89 0.252 0.00 13.6
08/03/2020 12:00:00 2020-08-03 05:00:00 7.9778 7.9483 99.8 0 0.00 0.00 450.89 0.242 0.00 13.6
08/03/2020 11:00:00 2020-08-03 04:00:00 7.9778 7.9483 99.8 0 0.00 0.00 450.89 0.242 0.00 13.6
08/03/2020 10:00:00 2020-08-03 03:00:00 8.2444 8.2149 99.8 0 0.00 0.00 450.89 0.255 0.00 13.6
08/03/2020 09:00:00 2020-08-03 02:00:00 8.1778 7.9404 98.4 0 0.00 0.00 450.89 0.255 0.00 13.6
08/03/2020 08:00:00 2020-08-03 01:00:00 8.5111 8.2880 98.5 0 0.00 0.00 450.89 0.162 0.00 13.6
08/03/2020 07:00:00 2020-08-03 00:00:00 9.0444 9.0147 99.8 0 0.00 0.00 450.89 0.189 0.00 13.6